createdAt,value
2017-12-29T00:00:20.841Z,85.80
2017-12-29T00:02:48.409Z,85.80
2017-12-29T00:05:16.394Z,85.80
2017-12-29T00:07:43.979Z,85.70
2017-12-29T00:10:11.544Z,85.60
2017-12-29T00:12:39.108Z,85.60
2017-12-29T00:15:06.710Z,85.50
2017-12-29T00:17:34.289Z,85.40
2017-12-29T00:20:01.904Z,85.50
2017-12-29T00:22:29.479Z,85.40
2017-12-29T00:24:57.084Z,85.30
2017-12-29T00:27:24.650Z,85.40
2017-12-29T00:29:52.214Z,85.40
2017-12-29T00:32:19.816Z,85.40
2017-12-29T00:34:48.159Z,85.30
2017-12-29T00:37:15.770Z,85.30
2017-12-29T00:39:43.333Z,85.10
2017-12-29T00:42:10.948Z,85.20
2017-12-29T00:44:38.473Z,85.10
2017-12-29T00:47:06.050Z,85.10
2017-12-29T00:49:33.661Z,85.00
2017-12-29T00:52:01.996Z,84.90
2017-12-29T00:54:29.567Z,84.90
2017-12-29T00:56:57.088Z,85.00
2017-12-29T00:59:24.616Z,84.90
2017-12-29T01:01:52.962Z,84.90
2017-12-29T01:04:20.491Z,84.90
2017-12-29T01:06:48.085Z,85.00
2017-12-29T01:09:15.620Z,84.90
2017-12-29T01:11:43.190Z,84.90
2017-12-29T01:14:10.722Z,84.80
2017-12-29T01:16:38.247Z,84.70
2017-12-29T01:19:05.850Z,84.70
2017-12-29T01:21:33.415Z,84.50
2017-12-29T01:24:01.064Z,84.80
2017-12-29T01:26:28.600Z,85.30
2017-12-29T01:28:56.153Z,84.70
2017-12-29T01:31:23.686Z,84.60
2017-12-29T01:33:51.253Z,84.60
2017-12-29T01:36:19.589Z,84.30
2017-12-29T01:38:47.112Z,84.30
2017-12-29T01:41:14.655Z,84.20
2017-12-29T01:43:43.015Z,84.30
2017-12-29T01:46:10.543Z,84.30
2017-12-29T01:48:38.071Z,84.40
2017-12-29T01:51:05.630Z,84.10
2017-12-29T01:53:33.201Z,84.20
2017-12-29T01:56:00.769Z,84.10
2017-12-29T01:58:28.315Z,84.10
2017-12-29T02:00:55.850Z,84.10
2017-12-29T02:03:23.441Z,84.00
2017-12-29T02:05:50.964Z,84.00
2017-12-29T02:08:19.253Z,83.90
2017-12-29T02:10:47.666Z,83.90
2017-12-29T02:13:15.199Z,83.90
2017-12-29T02:15:42.776Z,83.80
2017-12-29T02:18:11.078Z,83.80
2017-12-29T02:20:38.608Z,83.70
2017-12-29T02:23:06.190Z,83.60
2017-12-29T02:25:33.715Z,83.70
2017-12-29T02:28:01.243Z,83.70
2017-12-29T02:30:28.812Z,83.70
2017-12-29T02:32:57.102Z,84.30
2017-12-29T02:35:25.493Z,83.50
2017-12-29T02:37:53.034Z,83.50
2017-12-29T02:40:21.327Z,83.70
2017-12-29T02:42:48.895Z,83.50
2017-12-29T02:45:16.419Z,83.50
2017-12-29T02:47:44.761Z,83.20
2017-12-29T02:50:12.292Z,83.20
2017-12-29T02:52:39.865Z,83.30
2017-12-29T02:55:07.422Z,83.30
2017-12-29T02:57:34.954Z,83.10
2017-12-29T03:00:03.277Z,83.10
2017-12-29T03:02:31.378Z,83.10
2017-12-29T03:04:58.944Z,83.10
2017-12-29T03:07:26.471Z,82.90
2017-12-29T03:09:53.996Z,83.10
2017-12-29T03:12:21.562Z,82.90
2017-12-29T03:14:49.118Z,83.00
2017-12-29T03:17:16.682Z,82.90
2017-12-29T03:19:44.207Z,82.80
2017-12-29T03:22:12.540Z,82.80
2017-12-29T03:24:40.068Z,82.80
2017-12-29T03:27:07.663Z,82.80
2017-12-29T03:29:35.191Z,82.70
2017-12-29T03:32:02.712Z,82.60
2017-12-29T03:34:30.278Z,82.70
2017-12-29T03:36:58.610Z,82.90
2017-12-29T03:39:26.129Z,82.80
2017-12-29T03:41:54.463Z,82.80
2017-12-29T03:44:21.997Z,82.80
2017-12-29T03:46:49.562Z,82.90
2017-12-29T03:49:17.131Z,82.70
2017-12-29T03:51:44.659Z,82.60
2017-12-29T03:54:12.223Z,82.60
2017-12-29T03:56:39.752Z,82.80
2017-12-29T03:59:08.103Z,82.40
2017-12-29T04:01:35.625Z,82.20
2017-12-29T04:04:03.191Z,82.40
2017-12-29T04:06:30.773Z,82.40
2017-12-29T04:08:58.320Z,82.50
2017-12-29T04:11:25.843Z,82.40
2017-12-29T04:13:53.407Z,82.40
2017-12-29T04:16:20.930Z,82.40
2017-12-29T04:18:48.490Z,82.50
2017-12-29T04:21:16.016Z,82.30
2017-12-29T04:23:43.586Z,82.40
2017-12-29T04:26:11.107Z,82.40
2017-12-29T04:28:38.672Z,82.50
2017-12-29T04:31:06.202Z,82.30
2017-12-29T04:33:34.536Z,82.40
2017-12-29T04:36:02.062Z,82.40
2017-12-29T04:38:29.634Z,82.30
2017-12-29T04:40:57.164Z,82.20
2017-12-29T04:43:25.507Z,82.30
2017-12-29T04:45:53.027Z,82.20
2017-12-29T04:48:20.591Z,82.20
2017-12-29T04:50:48.124Z,82.20
2017-12-29T04:53:16.454Z,82.30
2017-12-29T04:55:43.982Z,82.40
2017-12-29T04:58:11.559Z,82.30
2017-12-29T05:00:39.081Z,82.20
2017-12-29T05:03:06.647Z,82.20
2017-12-29T05:05:34.195Z,82.20
2017-12-29T05:08:02.528Z,82.20
2017-12-29T05:10:30.057Z,82.10
2017-12-29T05:12:57.628Z,82.00
2017-12-29T05:15:25.152Z,82.20
2017-12-29T05:17:52.747Z,82.10
2017-12-29T05:20:20.276Z,82.00
2017-12-29T05:22:47.843Z,82.00
2017-12-29T05:25:15.372Z,82.10
2017-12-29T05:27:43.708Z,82.20
2017-12-29T05:30:11.230Z,82.20
2017-12-29T05:32:38.800Z,81.90
2017-12-29T05:35:06.375Z,81.90
2017-12-29T05:37:33.910Z,81.90
2017-12-29T05:40:01.480Z,81.80
2017-12-29T05:42:29.002Z,81.90
2017-12-29T05:44:57.340Z,81.60
2017-12-29T05:47:24.888Z,81.60
2017-12-29T05:49:52.463Z,81.40
2017-12-29T05:52:20.018Z,81.50
2017-12-29T05:54:47.582Z,81.30
2017-12-29T05:57:15.112Z,81.40
2017-12-29T05:59:42.679Z,81.30
2017-12-29T06:02:10.208Z,81.00
2017-12-29T06:04:38.534Z,81.00
2017-12-29T06:07:06.062Z,80.80
2017-12-29T06:09:33.630Z,81.00
2017-12-29T06:12:01.183Z,81.00
2017-12-29T06:14:28.750Z,81.10
2017-12-29T06:16:56.279Z,81.10
2017-12-29T06:19:24.610Z,81.00
2017-12-29T06:21:52.141Z,81.00
2017-12-29T06:24:19.711Z,81.00
2017-12-29T06:26:47.276Z,81.10
2017-12-29T06:29:14.842Z,81.10
2017-12-29T06:31:42.494Z,81.10
2017-12-29T06:34:10.127Z,81.10
2017-12-29T06:36:37.734Z,80.90
2017-12-29T06:39:05.262Z,80.90
2017-12-29T06:41:32.784Z,80.90
2017-12-29T06:44:00.356Z,80.80
2017-12-29T06:46:28.694Z,80.90
2017-12-29T06:48:56.216Z,80.80
2017-12-29T06:51:23.779Z,81.00
2017-12-29T06:53:51.302Z,80.80
2017-12-29T06:56:18.872Z,80.90
2017-12-29T06:58:47.187Z,80.60
2017-12-29T07:01:14.759Z,80.50
2017-12-29T07:03:42.279Z,80.90
2017-12-29T07:06:10.882Z,80.70
2017-12-29T07:08:38.404Z,80.70
2017-12-29T07:11:06.738Z,80.70
2017-12-29T07:13:34.272Z,80.80
2017-12-29T07:16:01.848Z,80.70
2017-12-29T07:18:29.383Z,80.70
2017-12-29T07:20:56.951Z,80.70
2017-12-29T07:23:24.473Z,80.40
2017-12-29T07:25:52.044Z,80.50
2017-12-29T07:28:20.336Z,80.60
2017-12-29T07:30:47.904Z,80.50
2017-12-29T07:33:15.431Z,80.70
2017-12-29T07:35:43.771Z,80.80
2017-12-29T07:38:11.291Z,80.80
2017-12-29T07:40:38.855Z,80.80
2017-12-29T07:43:06.411Z,80.70
2017-12-29T07:45:33.978Z,80.80
2017-12-29T07:48:01.507Z,80.90
2017-12-29T07:50:29.866Z,80.80
2017-12-29T07:52:57.387Z,81.40
2017-12-29T07:55:24.964Z,80.80
2017-12-29T07:57:52.500Z,80.80
2017-12-29T08:00:20.072Z,80.80
2017-12-29T08:02:47.624Z,80.90
2017-12-29T08:05:15.195Z,80.90
2017-12-29T08:07:42.725Z,80.80
2017-12-29T08:10:10.290Z,80.80
2017-12-29T08:12:37.812Z,80.80
2017-12-29T08:15:05.380Z,80.70
2017-12-29T08:17:33.666Z,80.80
2017-12-29T08:20:02.000Z,80.90
2017-12-29T08:22:29.526Z,80.90
2017-12-29T08:24:57.095Z,80.90
2017-12-29T08:27:24.624Z,80.90
2017-12-29T08:29:52.955Z,80.90
2017-12-29T08:32:20.480Z,80.90
2017-12-29T08:34:48.053Z,80.60
2017-12-29T08:37:15.579Z,80.80
2017-12-29T08:39:43.916Z,80.90
2017-12-29T08:42:11.440Z,80.90
2017-12-29T08:44:39.050Z,80.90
2017-12-29T08:47:06.580Z,80.80
2017-12-29T08:49:34.152Z,80.80
2017-12-29T08:52:01.677Z,80.70
2017-12-29T08:54:29.250Z,81.00
2017-12-29T08:56:56.780Z,81.00
2017-12-29T08:59:24.350Z,81.00
2017-12-29T09:01:51.880Z,80.90
2017-12-29T09:04:20.211Z,81.00
2017-12-29T09:06:47.758Z,81.00
2017-12-29T09:09:15.320Z,80.90
2017-12-29T09:11:42.848Z,80.90
2017-12-29T09:14:11.200Z,80.70
2017-12-29T09:16:39.504Z,80.70
2017-12-29T09:19:07.858Z,80.70
2017-12-29T09:21:35.388Z,80.70
2017-12-29T09:24:02.965Z,80.40
2017-12-29T09:26:32.000Z,80.60
2017-12-29T09:28:59.660Z,80.50
2017-12-29T09:31:27.950Z,80.40
2017-12-29T09:33:55.517Z,80.30
2017-12-29T09:36:23.055Z,80.50
2017-12-29T09:38:51.393Z,80.40
2017-12-29T09:41:18.929Z,80.40
2017-12-29T09:43:47.279Z,80.30
2017-12-29T09:46:14.803Z,80.20
2017-12-29T09:48:42.371Z,80.30
2017-12-29T09:51:10.670Z,80.20
2017-12-29T09:53:38.353Z,80.20
2017-12-29T09:56:05.901Z,80.10
2017-12-29T09:58:33.475Z,80.40
2017-12-29T10:01:01.004Z,80.40
2017-12-29T10:03:29.361Z,80.20
2017-12-29T10:05:57.706Z,80.20
2017-12-29T10:08:25.283Z,80.10
2017-12-29T10:10:52.805Z,80.20
2017-12-29T10:13:20.411Z,80.30
2017-12-29T10:15:48.730Z,79.70
2017-12-29T10:18:16.311Z,79.70
2017-12-29T10:20:43.854Z,79.00
2017-12-29T10:23:11.433Z,78.90
2017-12-29T10:25:38.966Z,78.40
2017-12-29T10:28:06.533Z,78.60
2017-12-29T10:30:34.124Z,78.50
2017-12-29T10:33:01.691Z,78.60
2017-12-29T10:35:29.243Z,78.40
2017-12-29T10:37:56.815Z,77.20
2017-12-29T10:40:24.343Z,77.70
2017-12-29T10:42:51.907Z,77.20
2017-12-29T10:45:19.434Z,76.60
2017-12-29T10:47:47.766Z,76.30
2017-12-29T10:50:15.287Z,76.30
2017-12-29T10:52:42.855Z,76.10
2017-12-29T10:55:10.379Z,76.30
2017-12-29T10:57:38.710Z,76.90
2017-12-29T11:00:06.236Z,76.80
2017-12-29T11:02:33.813Z,76.30
2017-12-29T11:05:01.338Z,75.00
2017-12-29T11:07:29.676Z,72.50
2017-12-29T11:09:57.203Z,72.40
2017-12-29T11:12:24.789Z,71.30
2017-12-29T11:14:52.319Z,70.20
2017-12-29T11:17:19.893Z,68.60
2017-12-29T11:19:47.443Z,67.80
2017-12-29T11:22:15.015Z,67.50
2017-12-29T11:24:42.543Z,67.00
2017-12-29T11:27:10.111Z,66.70
2017-12-29T11:29:37.635Z,66.40
2017-12-29T11:32:05.208Z,65.70
2017-12-29T11:34:33.494Z,65.90
2017-12-29T11:37:01.058Z,65.80
2017-12-29T11:39:28.591Z,65.80
2017-12-29T11:41:56.930Z,65.70
2017-12-29T11:44:24.450Z,65.60
2017-12-29T11:46:52.010Z,66.20
2017-12-29T11:49:19.545Z,66.30
2017-12-29T11:51:47.891Z,65.40
2017-12-29T11:54:16.418Z,65.40
2017-12-29T11:56:44.756Z,64.50
2017-12-29T11:59:12.284Z,64.50
2017-12-29T12:01:39.856Z,65.00
2017-12-29T12:04:07.388Z,65.50
2017-12-29T12:06:34.965Z,65.00
2017-12-29T12:09:02.492Z,64.50
2017-12-29T12:11:30.827Z,64.80
2017-12-29T12:13:58.363Z,64.80
2017-12-29T12:16:25.935Z,64.80
2017-12-29T12:18:53.471Z,64.50
2017-12-29T12:21:21.062Z,64.60
2017-12-29T12:23:48.591Z,65.00
2017-12-29T12:26:16.177Z,65.20
2017-12-29T12:28:43.702Z,65.40
2017-12-29T12:31:11.249Z,65.40
2017-12-29T12:33:39.769Z,67.60
2017-12-29T12:36:07.317Z,67.60
2017-12-29T12:38:34.896Z,68.30
2017-12-29T12:41:02.483Z,68.40
2017-12-29T12:43:30.031Z,69.40
2017-12-29T12:45:57.555Z,70.70
2017-12-29T12:48:25.120Z,71.50
2017-12-29T12:50:52.646Z,72.40
2017-12-29T12:53:20.978Z,72.70
2017-12-29T12:55:48.505Z,72.70
2017-12-29T12:58:16.080Z,73.60
2017-12-29T13:00:43.605Z,73.80
2017-12-29T13:03:11.931Z,74.20
2017-12-29T13:05:39.458Z,74.20
2017-12-29T13:08:07.030Z,74.40
2017-12-29T13:10:34.555Z,74.40
2017-12-29T13:13:02.892Z,74.70
2017-12-29T13:15:30.426Z,74.70
2017-12-29T13:17:57.987Z,74.90
2017-12-29T13:20:25.513Z,75.20
2017-12-29T13:22:53.851Z,75.00
2017-12-29T13:25:21.377Z,75.00
2017-12-29T13:27:48.947Z,75.00
2017-12-29T13:30:16.479Z,75.30
2017-12-29T13:32:44.048Z,75.50
2017-12-29T13:35:11.568Z,75.20
2017-12-29T13:37:39.144Z,75.30
2017-12-29T13:40:07.426Z,75.10
2017-12-29T13:42:35.756Z,75.30
2017-12-29T13:45:03.275Z,75.20
2017-12-29T13:47:30.850Z,75.10
2017-12-29T13:49:58.380Z,75.10
2017-12-29T13:52:26.713Z,74.40
2017-12-29T13:54:54.242Z,74.40
2017-12-29T13:57:21.824Z,75.10
2017-12-29T13:59:49.352Z,74.40
2017-12-29T14:02:16.924Z,73.80
2017-12-29T14:04:44.498Z,74.30
2017-12-29T14:07:12.058Z,73.90
2017-12-29T14:09:39.584Z,74.30
2017-12-29T14:12:07.145Z,74.20
2017-12-29T14:14:34.676Z,74.10
2017-12-29T14:17:03.034Z,75.70
2017-12-29T14:19:30.563Z,75.70
2017-12-29T14:21:58.127Z,76.80
2017-12-29T14:24:25.658Z,76.40
2017-12-29T14:26:53.227Z,76.00
2017-12-29T14:29:20.748Z,77.60
2017-12-29T14:31:48.312Z,77.20
2017-12-29T14:34:16.604Z,77.20
2017-12-29T14:36:44.934Z,77.60
2017-12-29T14:39:12.458Z,77.50
2017-12-29T14:41:40.037Z,78.00
2017-12-29T14:44:07.562Z,78.00
2017-12-29T14:46:35.935Z,77.90
2017-12-29T14:49:04.221Z,77.40
2017-12-29T14:51:31.840Z,77.30
2017-12-29T14:53:59.458Z,77.80
2017-12-29T14:56:27.083Z,77.80
2017-12-29T14:58:55.413Z,77.50
2017-12-29T15:01:22.980Z,77.50
2017-12-29T15:03:50.498Z,77.70
2017-12-29T15:06:18.827Z,77.70
2017-12-29T15:08:46.360Z,77.70
2017-12-29T15:11:13.968Z,77.80
2017-12-29T15:13:41.541Z,77.90
2017-12-29T15:16:09.917Z,77.70
2017-12-29T15:18:38.254Z,77.70
2017-12-29T15:21:05.828Z,77.70
2017-12-29T15:23:33.362Z,77.80
2017-12-29T15:26:00.975Z,77.90
2017-12-29T15:28:29.313Z,78.00
2017-12-29T15:30:56.925Z,78.00
2017-12-29T15:33:25.217Z,77.70
2017-12-29T15:35:52.830Z,77.70
2017-12-29T15:38:20.352Z,77.80
2017-12-29T15:40:53.655Z,77.80
2017-12-29T15:43:21.234Z,77.90
2017-12-29T15:45:48.844Z,77.90
2017-12-29T15:48:16.411Z,78.10
2017-12-29T15:50:44.030Z,78.10
2017-12-29T15:53:11.599Z,77.90
2017-12-29T15:55:39.210Z,78.00
2017-12-29T15:58:06.733Z,78.00
2017-12-29T16:00:35.985Z,78.00
2017-12-29T16:03:03.554Z,77.90
2017-12-29T16:05:31.162Z,77.70
2017-12-29T16:07:59.510Z,77.80
2017-12-29T16:10:28.580Z,77.90
2017-12-29T16:12:56.113Z,77.90
2017-12-29T16:15:23.721Z,77.80
2017-12-29T16:17:51.252Z,77.80
2017-12-29T16:20:18.819Z,77.90
2017-12-29T16:22:46.391Z,77.80
2017-12-29T16:25:14.011Z,77.70
2017-12-29T16:27:41.590Z,77.90
2017-12-29T16:30:09.157Z,77.90
2017-12-29T16:32:36.683Z,77.80
2017-12-29T16:35:04.253Z,77.60
2017-12-29T16:37:31.822Z,77.80
2017-12-29T16:39:59.467Z,77.60
2017-12-29T16:42:27.034Z,77.70
2017-12-29T16:44:54.599Z,77.80
2017-12-29T16:47:22.126Z,77.70
2017-12-29T16:49:50.507Z,77.80
2017-12-29T16:52:18.844Z,77.70
2017-12-29T16:54:46.461Z,77.70
2017-12-29T16:57:13.983Z,77.70
2017-12-29T16:59:41.601Z,77.50
2017-12-29T17:02:09.173Z,77.40
2017-12-29T17:04:36.776Z,77.50
2017-12-29T17:07:05.115Z,77.30
2017-12-29T17:09:32.680Z,77.40
2017-12-29T17:12:00.246Z,77.30
2017-12-29T17:14:27.834Z,77.00
2017-12-29T17:16:56.167Z,77.30
2017-12-29T17:19:23.740Z,77.20
2017-12-29T17:21:51.305Z,77.20
2017-12-29T17:24:18.913Z,77.10
2017-12-29T17:26:46.443Z,77.20
2017-12-29T17:29:14.053Z,77.00
2017-12-29T17:31:41.575Z,77.00
2017-12-29T17:34:09.959Z,76.90
2017-12-29T17:36:38.308Z,76.90
2017-12-29T17:39:05.876Z,76.90
2017-12-29T17:41:33.400Z,76.90
2017-12-29T17:44:01.016Z,76.90
2017-12-29T17:46:29.363Z,76.50
2017-12-29T17:48:56.925Z,77.20
2017-12-29T17:51:24.503Z,76.70
2017-12-29T17:53:52.843Z,76.80
2017-12-29T17:56:20.366Z,76.70
2017-12-29T17:58:47.940Z,76.60
2017-12-29T18:01:15.485Z,76.60
2017-12-29T18:03:43.058Z,76.60
2017-12-29T18:06:10.583Z,76.60
2017-12-29T18:08:38.929Z,76.90
2017-12-29T18:11:06.464Z,76.90
2017-12-29T18:13:34.073Z,76.90
2017-12-29T18:16:02.423Z,76.90
2017-12-29T18:18:29.986Z,76.90
2017-12-29T18:20:58.602Z,76.60
2017-12-29T18:23:26.977Z,76.80
2017-12-29T18:25:55.272Z,76.90
2017-12-29T18:28:22.853Z,76.80
2017-12-29T18:30:50.376Z,76.90
2017-12-29T18:33:18.749Z,76.70
2017-12-29T18:35:47.097Z,76.80
2017-12-29T18:38:14.705Z,76.70
2017-12-29T18:40:43.038Z,76.90
2017-12-29T18:43:10.649Z,76.80
2017-12-29T18:45:38.236Z,77.00
2017-12-29T18:48:05.853Z,77.10
2017-12-29T18:50:34.198Z,77.20
2017-12-29T18:53:01.808Z,77.20
2017-12-29T18:55:29.339Z,77.20
2017-12-29T18:57:57.725Z,76.90
2017-12-29T19:00:26.062Z,77.30
2017-12-29T19:02:53.759Z,77.20
2017-12-29T19:05:21.327Z,77.30
2017-12-29T19:07:49.714Z,77.30
2017-12-29T19:10:18.132Z,77.60
2017-12-29T19:12:45.749Z,77.60
2017-12-29T19:15:14.039Z,77.80
2017-12-29T19:17:41.660Z,77.80
2017-12-29T19:20:09.193Z,77.80
2017-12-29T19:22:36.814Z,78.00
2017-12-29T19:25:05.158Z,78.20
2017-12-29T19:27:32.733Z,78.20
2017-12-29T19:30:01.091Z,78.40
2017-12-29T19:32:28.711Z,78.30
2017-12-29T19:34:56.268Z,78.60
2017-12-29T19:37:23.887Z,78.50
2017-12-29T19:39:51.539Z,78.60
2017-12-29T19:42:19.075Z,78.70
2017-12-29T19:44:46.703Z,78.70
2017-12-29T19:47:14.280Z,78.80
2017-12-29T19:49:41.861Z,78.90
2017-12-29T19:52:09.439Z,78.80
2017-12-29T19:54:37.009Z,78.80
2017-12-29T19:57:05.237Z,78.90
2017-12-29T19:59:32.815Z,78.90
2017-12-29T20:02:00.432Z,78.90
2017-12-29T20:04:28.767Z,79.10
2017-12-29T20:06:56.391Z,79.10
2017-12-29T20:09:23.974Z,79.10
2017-12-29T20:11:51.629Z,79.20
2017-12-29T20:14:19.214Z,79.20
2017-12-29T20:16:46.834Z,79.20
2017-12-29T20:19:14.419Z,79.10
2017-12-29T20:21:42.041Z,79.20
2017-12-29T20:24:09.604Z,79.20
2017-12-29T20:26:37.223Z,79.30
2017-12-29T20:29:04.802Z,79.30
2017-12-29T20:31:33.238Z,79.40
2017-12-29T20:34:00.859Z,79.30
2017-12-29T20:36:29.202Z,79.50
2017-12-29T20:38:56.813Z,79.40
2017-12-29T20:41:24.395Z,79.50
2017-12-29T20:43:52.020Z,79.60
2017-12-29T20:46:20.357Z,79.60
2017-12-29T20:48:47.970Z,79.60
2017-12-29T20:51:15.553Z,79.70
2017-12-29T20:53:43.182Z,79.80
2017-12-29T20:56:19.068Z,79.70
2017-12-29T20:58:46.692Z,79.90
2017-12-29T21:01:15.038Z,80.20
2017-12-29T21:03:42.663Z,80.10
2017-12-29T21:06:10.237Z,80.30
2017-12-29T21:08:37.814Z,80.40
2017-12-29T21:11:05.440Z,80.50
2017-12-29T21:13:33.078Z,80.50
2017-12-29T21:16:01.958Z,80.70
2017-12-29T21:18:30.299Z,80.80
2017-12-29T21:20:57.918Z,80.80
2017-12-29T21:23:27.526Z,80.80
2017-12-29T21:25:55.147Z,80.80
2017-12-29T21:28:23.199Z,81.00
2017-12-29T21:30:50.815Z,81.10
2017-12-29T21:33:18.396Z,81.10
2017-12-29T21:35:46.018Z,81.20
2017-12-29T21:38:14.363Z,81.30
2017-12-29T21:40:41.987Z,81.30
2017-12-29T21:43:09.573Z,81.30
2017-12-29T21:45:37.192Z,81.40
2017-12-29T21:48:05.534Z,81.50
2017-12-29T21:50:33.913Z,81.50
2017-12-29T21:53:01.494Z,81.40
2017-12-29T21:55:29.875Z,81.60
2017-12-29T21:57:58.220Z,81.60
2017-12-29T22:00:25.848Z,81.60
2017-12-29T22:02:53.426Z,81.60
2017-12-29T22:05:21.047Z,81.70
2017-12-29T22:07:48.629Z,81.70
2017-12-29T22:10:16.257Z,81.70
2017-12-29T22:12:44.600Z,81.70
2017-12-29T22:15:12.228Z,81.70
2017-12-29T22:17:39.808Z,81.80
2017-12-29T22:20:07.431Z,81.80
2017-12-29T22:22:35.017Z,81.80
2017-12-29T22:25:02.651Z,81.80
2017-12-29T22:27:30.228Z,81.90
2017-12-29T22:29:57.847Z,81.90
2017-12-29T22:32:26.196Z,82.30
2017-12-29T22:34:53.817Z,82.10
2017-12-29T22:37:21.397Z,82.10
2017-12-29T22:39:49.022Z,82.20
2017-12-29T22:42:17.363Z,82.40
2017-12-29T22:44:44.983Z,82.30
2017-12-29T22:47:12.562Z,82.40
2017-12-29T22:49:40.177Z,82.40
2017-12-29T22:52:08.517Z,82.60
2017-12-29T22:54:36.160Z,82.60
2017-12-29T22:57:03.746Z,82.80
2017-12-29T22:59:31.362Z,82.80
2017-12-29T23:01:58.942Z,82.80
2017-12-29T23:04:26.559Z,83.00
2017-12-29T23:06:54.899Z,83.20
2017-12-29T23:09:22.524Z,83.10
2017-12-29T23:11:50.104Z,83.30
2017-12-29T23:14:17.724Z,83.40
2017-12-29T23:16:46.067Z,83.90
2017-12-29T23:19:13.683Z,83.80
2017-12-29T23:21:41.258Z,83.70
2017-12-29T23:24:08.888Z,83.90
2017-12-29T23:26:37.222Z,84.00
2017-12-29T23:29:04.889Z,84.00
2017-12-29T23:31:32.463Z,84.50
2017-12-29T23:34:00.083Z,84.50
2017-12-29T23:36:27.671Z,84.30
2017-12-29T23:38:55.292Z,84.50
2017-12-29T23:41:22.868Z,84.70
2017-12-29T23:43:50.492Z,84.80
2017-12-29T23:46:18.832Z,84.80
2017-12-29T23:48:46.441Z,84.80
2017-12-29T23:51:14.020Z,85.10
2017-12-29T23:53:41.624Z,85.20
2017-12-29T23:56:09.207Z,85.10
2017-12-29T23:58:37.584Z,85.40
